Terminal Aerodrome Forecast
Issued by NWS

Home | Current Version | Previous Version | Text Only | Print | Product List | Glossary On
Versions: 1 2 3 4 5 6 7 8 9 10 11 12 13 14 15 16 17 18 19 20 21 22 23 24 25 26 27 28 29 30 31 32 33 34 35 36 37 38 39
000
FTUS41 KCTP 191235 AAB
TAFJST
TAF AMD
KJST 191235Z 1913/2012 30012G18KT 2SM -RASN BR VV002
      TEMPO 1913/1914 1/2SM -SN FG
     FM191400 31015G25KT 1SM -SN BR OVC004
     FM191600 30018G30KT 5SM -SHSN OVC012
     FM191900 31015G28KT P6SM BKN030=

USA.gov is the U.S. government's official web portal to all federal, state and local government web resources and services.